Flight Track Log - Related Links

Times and Time Zones

All times are in EDT time to prevent confusion due to time zone crossing. See the AFL1742 flight status page for this flight to view local times or setup timezone preferences in your user account.

Time Position Orientation Groundspeed Altitude Reporting Facility
EDT Latitude Longitude Course Direction KTS MPH feet Rate Location/Type
Sat 11:35:00 AM 56.1686 37.8094 50° Northeast  Level Estimated
Sat 11:36:00 AM 56.2483 37.9812 50° Northeast  Level Estimated
Sat 11:37:00 AM 56.3278 38.1537 50° Northeast  Level Estimated
Sat 11:38:00 AM 56.4071 38.3269 50° Northeast  Level Estimated
Sat 11:39:00 AM 56.4860 38.5008 51° Northeast  Level Estimated
Sat 11:40:00 AM 56.5648 38.6755 51° Northeast  Level Estimated
Sat 11:41:00 AM 56.6433 38.8509 51° Northeast  Level Estimated
Sat 11:42:00 AM 56.7216 39.0270 51° Northeast  Level Estimated
Sat 11:43:00 AM 56.7996 39.2038 51° Northeast  Level Estimated
Sat 11:44:00 AM 56.8773 39.3814 51° Northeast  Level Estimated
Sat 11:45:00 AM 56.9548 39.5597 51° Northeast  Level Estimated
Sat 11:46:00 AM 57.0321 39.7388 52° Northeast  Level Estimated
Sat 11:47:00 AM 57.1091 39.9186 52° Northeast  Level Estimated
Sat 11:48:00 AM 57.1858 40.0991 52° Northeast  Level Estimated
Sat 11:49:00 AM 57.2623 40.2804 52° Northeast  Level Estimated
Sat 11:50:00 AM 57.3385 40.4625 52° Northeast  Level Estimated
Sat 11:51:00 AM 57.4145 40.6453 52° Northeast  Level Estimated
Sat 11:52:00 AM 57.4902 40.8288 52° Northeast  Level Estimated
Sat 11:53:00 AM 57.5656 41.0132 53° Northeast  Level Estimated
Sat 11:54:00 AM 57.6392 41.1945 53° Northeast  Level Estimated
Sat 11:55:00 AM 57.7126 41.3765 53° Northeast  Level Estimated
Sat 11:56:00 AM 57.7857 41.5593 53° Northeast  Level Estimated
Sat 11:57:00 AM 57.8585 41.7428 53° Northeast  Level Estimated
Sat 11:58:00 AM 57.9310 41.9271 53° Northeast  Level Estimated
Sat 11:59:00 AM 58.0033 42.1121 54° Northeast  Level Estimated
Sat 12:00:00 PM 58.0754 42.2979 54° Northeast  Level Estimated
Sat 12:01:00 PM 58.1471 42.4844 54° Northeast  Level Estimated
Sat 12:02:00 PM 58.2186 42.6716 54° Northeast  Level Estimated
Sat 12:03:00 PM 58.2898 42.8597 54° Northeast  Level Estimated
Sat 12:04:00 PM 58.3608 43.0484 54° Northeast  Level Estimated
Sat 12:05:00 PM 58.4314 43.2379 54° Northeast  Level Estimated
Sat 12:06:00 PM 58.5018 43.4282 55° Northeast  Level Estimated
Sat 12:07:00 PM 58.5719 43.6193 55° Northeast  Level Estimated
Sat 12:08:00 PM 58.6417 43.8111 55° Northeast  Level Estimated
Sat 12:09:00 PM 58.7112 44.0037 55° Northeast  Level Estimated
Sat 12:10:00 PM 58.7804 44.1970 55° Northeast  Level Estimated
Sat 12:11:00 PM 58.8494 44.3912 55° Northeast  Level Estimated
Sat 12:12:00 PM 58.9180 44.5861 56° Northeast  Level Estimated
Sat 12:13:00 PM 58.9864 44.7817 56° Northeast  Level Estimated
Sat 12:14:00 PM 59.0544 44.9782 56° Northeast  Level Estimated
Sat 12:15:00 PM 59.1222 45.1754 56° Northeast  Level Estimated
Sat 12:16:00 PM 59.1896 45.3734 56° Northeast  Level Estimated
Sat 12:17:00 PM 59.2568 45.5722 56° Northeast  Level Estimated
Sat 12:18:00 PM 59.3236 45.7718 57° Northeast  Level Estimated
Sat 12:19:00 PM 59.3902 45.9721 57° Northeast  Level Estimated
Sat 12:20:00 PM 59.4564 46.1733 57° Northeast  Level Estimated
Sat 12:21:00 PM 59.5224 46.3752 57° Northeast  Level Estimated
Sat 12:22:00 PM 59.5880 46.5779 57° Northeast  Level Estimated
Sat 12:23:00 PM 59.6533 46.7814 58° Northeast  Level Estimated
Sat 12:24:00 PM 59.7183 46.9857 58° Northeast  Level Estimated
Sat 12:25:00 PM 59.7829 47.1908 58° Northeast  Level Estimated
Sat 12:26:00 PM 59.8473 47.3967 58° Northeast  Level Estimated
Sat 12:27:00 PM 59.9113 47.6034 58° Northeast  Level Estimated
Sat 12:28:00 PM 59.9750 47.8109 58° Northeast  Level Estimated
Sat 12:29:00 PM 60.0383 48.0192 59° Northeast  Level Estimated
Sat 12:30:00 PM 60.1014 48.2282 59° Northeast  Level Estimated
Sat 12:31:00 PM 60.1641 48.4381 59° Northeast  Level Estimated
Sat 12:32:00 PM 60.2265 48.6488 59° Northeast  Level Estimated
Sat 12:33:00 PM 60.2885 48.8603 59° Northeast  Level Estimated
Sat 12:34:00 PM 60.3502 49.0726 59° Northeast  Level Estimated
Sat 12:35:00 PM 60.4116 49.2856 60° Northeast  Level Estimated
Sat 12:36:00 PM 60.4726 49.4995 60° Northeast  Level Estimated
Sat 12:37:00 PM 60.5333 49.7142 60° Northeast  Level Estimated
Sat 12:38:00 PM 60.5936 49.9297 60° Northeast  Level Estimated
Sat 12:39:00 PM 60.6536 50.1460 60° Northeast  Level Estimated
Sat 12:40:00 PM 60.7132 50.3631 61° Northeast  Level Estimated
Sat 12:41:00 PM 60.7725 50.5810 61° Northeast  Level Estimated
Sat 12:42:00 PM 60.8315 50.7997 61° Northeast  Level Estimated
Sat 12:43:00 PM 60.8900 51.0192 61° Northeast  Level Estimated
Sat 12:44:00 PM 60.9482 51.2396 61° Northeast  Level Estimated
Sat 12:45:00 PM 61.0061 51.4607 62° Northeast  Level Estimated
Sat 12:46:00 PM 61.0636 51.6826 62° Northeast  Level Estimated
Sat 12:47:00 PM 61.1207 51.9054 62° Northeast  Level Estimated
Sat 12:48:00 PM 61.1775 52.1289 62° Northeast  Level Estimated
Sat 12:49:00 PM 61.2339 52.3532 62° Northeast  Level Estimated
Sat 12:50:00 PM 61.2899 52.5784 63° Northeast  Level Estimated
Sat 12:51:00 PM 61.3455 52.8044 63° Northeast  Level Estimated
Sat 12:52:00 PM 61.4008 53.0311 63° Northeast  Level Estimated
Sat 12:53:00 PM 61.4557 53.2587 63° Northeast  Level Estimated
Sat 12:54:00 PM 61.5102 53.4870 63° Northeast  Level Estimated
Sat 12:55:00 PM 61.5643 53.7162 64° Northeast  Level Estimated
Sat 12:56:00 PM 61.6180 53.9461 64° Northeast  Level Estimated
Sat 12:57:00 PM 61.6714 54.1769 64° Northeast  Level Estimated
Sat 12:58:00 PM 61.7244 54.4084 64° Northeast  Level Estimated
Sat 12:59:00 PM 61.7769 54.6408 64° Northeast  Level Estimated
Sat 01:00:00 PM 61.8291 54.8739 65° Northeast  Level Estimated
Sat 01:01:00 PM 61.8809 55.1078 65° Northeast  Level Estimated
Sat 01:02:00 PM 61.9323 55.3425 65° Northeast  Level Estimated
Sat 01:03:00 PM 61.9832 55.5780 65° Northeast  Level Estimated
Sat 01:04:00 PM 62.0338 55.8143 65° Northeast  Level Estimated
Sat 01:05:00 PM 62.0840 56.0514 66° East  Level Estimated
Sat 01:06:00 PM 62.1338 56.2892 66° East  Level Estimated
Sat 01:07:00 PM 62.1831 56.5278 66° East  Level Estimated
Sat 01:08:00 PM 62.2321 56.7673 66° East  Level Estimated
Sat 01:09:00 PM 62.2806 57.0074 66° East  Level Estimated
Sat 01:10:00 PM 62.3287 57.2484 67° East  Level Estimated
Sat 01:11:00 PM 62.3764 57.4901 67° East  Level Estimated
Sat 01:12:00 PM 62.4237 57.7326 67° East  Level Estimated
Sat 01:13:00 PM 62.4705 57.9758 67° East  Level Estimated
Sat 01:14:00 PM 62.5170 58.2199 68° East  Level Estimated
Sat 01:15:00 PM 62.5630 58.4646 68° East  Level Estimated
Sat 01:16:00 PM 62.6086 58.7102 68° East  Level Estimated
Sat 01:17:00 PM 62.6537 58.9565 68° East  Level Estimated
Sat 01:18:00 PM 62.6984 59.2035 68° East  Level Estimated
Sat 01:19:00 PM 62.7427 59.4512 69° East  Level Estimated
Sat 01:20:00 PM 62.7865 59.6998 69° East  Level Estimated
Sat 01:21:00 PM 62.8299 59.9490 69° East  Level Estimated
Sat 01:22:00 PM 62.8729 60.1990 69° East  Level Estimated
Sat 01:23:00 PM 62.9154 60.4497 69° East  Level Estimated
Sat 01:24:00 PM 62.9575 60.7011 70° East  Level Estimated
Sat 01:25:00 PM 62.9991 60.9533 70° East  Level Estimated
Sat 01:26:00 PM 63.0402 61.2062 70° East  Level Estimated
Sat 01:27:00 PM 63.0810 61.4598 70° East  Level Estimated
Sat 01:28:00 PM 63.1212 61.7141 71° East  Level Estimated
Sat 01:29:00 PM 63.1610 61.9690 71° East  Level Estimated
Sat 01:30:00 PM 63.2004 62.2247 71° East  Level Estimated
Sat 01:31:00 PM 63.2393 62.4811 71° East  Level Estimated
Sat 01:32:00 PM 63.2777 62.7382 72° East  Level Estimated
Sat 01:33:00 PM 63.3156 62.9959 72° East  Level Estimated
Sat 01:34:00 PM 63.3531 63.2544 72° East  Level Estimated
Sat 01:35:00 PM 63.3901 63.5135 72° East  Level Estimated
Sat 01:36:00 PM 63.4267 63.7732 72° East  Level Estimated
Sat 01:37:00 PM 63.4628 64.0336 73° East  Level Estimated
Sat 01:38:00 PM 63.4984 64.2947 73° East  Level Estimated
Sat 01:39:00 PM 63.5335 64.5564 73° East  Level Estimated
Sat 01:40:00 PM 63.5682 64.8188 73° East  Level Estimated
Sat 01:41:00 PM 63.6023 65.0818 74° East  Level Estimated
Sat 01:42:00 PM 63.6360 65.3454 74° East  Level Estimated
Sat 01:43:00 PM 63.6692 65.6097 74° East  Level Estimated
Sat 01:44:00 PM 63.7020 65.8745 74° East  Level Estimated
Sat 01:45:00 PM 63.7342 66.1400 75° East  Level Estimated
Sat 01:46:00 PM 63.7659 66.4061 75° East  Level Estimated
Sat 01:47:00 PM 63.7972 66.6728 75° East  Level Estimated
Sat 01:48:00 PM 63.8279 66.9400 75° East  Level Estimated
Sat 01:49:00 PM 63.8582 67.2078 76° East  Level Estimated
Sat 01:50:00 PM 63.8880 67.4762 76° East  Level Estimated
Sat 01:51:00 PM 63.9173 67.7452 76° East  Level Estimated
Sat 01:52:00 PM 63.9460 68.0147 76° East  Level Estimated
Sat 01:53:00 PM 63.9743 68.2848 76° East  Level Estimated
Sat 01:54:00 PM 64.0021 68.5555 77° East  Level Estimated
Sat 01:55:00 PM 64.0293 68.8266 77° East  Level Estimated
Sat 01:56:00 PM 64.0561 69.0983 77° East  Level Estimated
Sat 01:57:00 PM 64.0823 69.3705 77° East  Level Estimated
Sat 01:58:00 PM 64.1081 69.6432 78° East  Level Estimated
Sat 01:59:00 PM 64.1333 69.9164 78° East  Level Estimated
Sat 02:00:00 PM 64.1580 70.1901 78° East  Level Estimated
Sat 02:01:00 PM 64.1822 70.4643 78° East  Level Estimated
Sat 02:02:00 PM 64.2059 70.7389 79° East  Level Estimated
Sat 02:03:00 PM 64.2291 71.0140 79° East  Level Estimated
Sat 02:04:00 PM 64.2517 71.2896 79° East  Level Estimated
Sat 02:05:00 PM 64.2739 71.5656 79° East  Level Estimated
Sat 02:06:00 PM 64.2955 71.8421 80° East  Level Estimated
Sat 02:07:00 PM 64.3166 72.1190 80° East  Level Estimated
Sat 02:08:00 PM 64.3371 72.3963 80° East  Level Estimated
Sat 02:09:00 PM 64.3572 72.6740 80° East  Level Estimated
Sat 02:10:00 PM 64.3767 72.9521 81° East  Level Estimated
Sat 02:11:00 PM 64.3957 73.2306 81° East  Level Estimated
Sat 02:12:00 PM 64.4141 73.5095 81° East  Level Estimated
Sat 02:13:00 PM 64.4321 73.7888 81° East  Level Estimated
Sat 02:14:00 PM 64.4495 74.0684 82° East  Level Estimated
Sat 02:15:00 PM 64.4663 74.3483 82° East  Level Estimated
Sat 02:16:00 PM 64.4827 74.6286 82° East  Level Estimated
Sat 02:17:00 PM 64.4985 74.9093 82° East  Level Estimated
Sat 02:18:00 PM 64.5138 75.1902 83° East  Level Estimated
Sat 02:19:00 PM 64.5285 75.4715 83° East  Level Estimated
Sat 02:20:00 PM 64.5427 75.7531 83° East  Level Estimated
Sat 02:21:00 PM 64.5564 76.0349 83° East  Level Estimated
Sat 02:22:00 PM 64.5695 76.3170 84° East  Level Estimated
Sat 02:23:00 PM 64.5820 76.5994 84° East  Level Estimated
Sat 02:24:00 PM 64.5941 76.8821 84° East  Level Estimated
Sat 02:25:00 PM 64.6056 77.1650 84° East  Level Estimated
Sat 02:26:00 PM 64.6165 77.4481 85° East  Level Estimated
Sat 02:27:00 PM 64.6270 77.7315 85° East  Level Estimated
Sat 02:28:00 PM 64.6368 78.0150 85° East  Level Estimated
Sat 02:29:00 PM 64.6462 78.2988 85° East  Level Estimated
Sat 02:30:00 PM 64.6550 78.5827 86° East  Level Estimated
Sat 02:31:00 PM 64.6632 78.8669 86° East  Level Estimated
Sat 02:32:00 PM 64.6709 79.1512 86° East  Level Estimated
Sat 02:33:00 PM 64.6780 79.4356 87° East  Level Estimated
Sat 02:34:00 PM 64.6846 79.7202 87° East  Level Estimated
Sat 02:35:00 PM 64.6907 80.0049 87° East  Level Estimated
Sat 02:36:00 PM 64.6962 80.2898 87° East  Level Estimated
Sat 02:37:00 PM 64.7012 80.5747 88° East  Level Estimated
Sat 02:38:00 PM 64.7056 80.8598 88° East  Level Estimated
Sat 02:39:00 PM 64.7094 81.1450 88° East  Level Estimated
Sat 02:40:00 PM 64.7128 81.4302 88° East  Level Estimated
Sat 02:41:00 PM 64.7155 81.7155 89° East  Level Estimated
Sat 02:42:00 PM 64.7178 82.0008 89° East  Level Estimated
Sat 02:43:00 PM 64.7194 82.2862 89° East  Level Estimated
Sat 02:44:00 PM 64.7205 82.5716 89° East  Level Estimated
Sat 02:45:00 PM 64.7211 82.8570 90° East  Level Estimated
Sat 02:46:00 PM 64.7211 83.1424 90° East  Level Estimated
Sat 02:47:00 PM 64.7206 83.4279 90° East  Level Estimated
Sat 02:48:00 PM 64.7196 83.7133 90° East  Level Estimated
Sat 02:49:00 PM 64.7179 83.9987 91° East  Level Estimated
Sat 02:50:00 PM 64.7158 84.2840 91° East  Level Estimated
Sat 02:51:00 PM 64.7130 84.5693 91° East  Level Estimated
Sat 02:52:00 PM 64.7098 84.8545 91° East  Level Estimated
Sat 02:53:00 PM 64.7059 85.1397 92° East  Level Estimated
Sat 02:54:00 PM 64.7016 85.4248 92° East  Level Estimated
Sat 02:55:00 PM 64.6967 85.7097 92° East  Level Estimated
Sat 02:56:00 PM 64.6912 85.9946 92° East  Level Estimated
Sat 02:57:00 PM 64.6852 86.2793 93° East  Level Estimated
Sat 02:58:00 PM 64.6786 86.5639 93° East  Level Estimated
Sat 02:59:00 PM 64.6715 86.8484 93° East  Level Estimated
Sat 03:00:00 PM 64.6639 87.1327 93° East  Level Estimated
Sat 03:01:00 PM 64.6557 87.4168 94° East  Level Estimated
Sat 03:02:00 PM 64.6470 87.7008 94° East  Level Estimated
Sat 03:03:00 PM 64.6377 87.9846 94° East  Level Estimated
Sat 03:04:00 PM 64.6279 88.2682 94° East  Level Estimated
Sat 03:05:00 PM 64.6175 88.5516 95° East  Level Estimated
Sat 03:06:00 PM 64.6066 88.8347 95° East  Level Estimated
Sat 03:07:00 PM 64.5951 89.1176 95° East  Level Estimated
Sat 03:08:00 PM 64.5832 89.4003 96° East  Level Estimated
Sat 03:09:00 PM 64.5706 89.6827 96° East  Level Estimated
Sat 03:10:00 PM 64.5575 89.9649 96° East  Level Estimated
Sat 03:11:00 PM 64.5439 90.2467 96° East  Level Estimated
Sat 03:12:00 PM 64.5298 90.5283 97° East  Level Estimated
Sat 03:13:00 PM 64.5151 90.8096 97° East  Level Estimated
Sat 03:14:00 PM 64.4999 91.0906 97° East  Level Estimated
Sat 03:15:00 PM 64.4841 91.3712 97° East  Level Estimated
Sat 03:16:00 PM 64.4678 91.6516 98° East  Level Estimated
Sat 03:17:00 PM 64.4510 91.9316 98° East  Level Estimated
Sat 03:18:00 PM 64.4337 92.2112 98° East  Level Estimated
Sat 03:19:00 PM 64.4158 92.4905 98° East  Level Estimated
Sat 03:20:00 PM 64.3974 92.7694 99° East  Level Estimated
Sat 03:21:00 PM 64.3784 93.0480 99° East  Level Estimated
Sat 03:22:00 PM 64.3590 93.3261 99° East  Level Estimated
Sat 03:23:00 PM 64.3390 93.6039 99° East  Level Estimated
Sat 03:24:00 PM 64.3184 93.8812 100° East  Level Estimated
Sat 03:25:00 PM 64.2974 94.1581 100° East  Level Estimated
Sat 03:26:00 PM 64.2758 94.4346 100° East  Level Estimated
Sat 03:27:00 PM 64.2537 94.7107 100° East  Level Estimated
Sat 03:28:00 PM 64.2311 94.9863 101° East  Level Estimated
Sat 03:29:00 PM 64.2080 95.2615 101° East  Level Estimated
Sat 03:30:00 PM 64.1844 95.5362 101° East  Level Estimated
Sat 03:31:00 PM 64.1602 95.8104 101° East  Level Estimated
Sat 03:32:00 PM 64.1355 96.0842 102° East  Level Estimated
Sat 03:33:00 PM 64.1104 96.3574 102° East  Level Estimated
Sat 03:34:00 PM 64.0847 96.6301 102° East  Level Estimated
Sat 03:35:00 PM 64.0585 96.9024 102° East  Level Estimated
Sat 03:36:00 PM 64.0318 97.1741 103° East  Level Estimated
Sat 03:37:00 PM 64.0045 97.4453 103° East  Level Estimated
Sat 03:38:00 PM 63.9768 97.7160 103° East  Level Estimated
Sat 03:39:00 PM 63.9486 97.9861 103° East  Level Estimated
Sat 03:40:00 PM 63.9199 98.2557 104° East  Level Estimated
Sat 03:41:00 PM 63.8906 98.5247 104° East  Level Estimated
Sat 03:42:00 PM 63.8609 98.7932 104° East  Level Estimated
Sat 03:43:00 PM 63.8307 99.0611 104° East  Level Estimated
Sat 03:44:00 PM 63.8000 99.3284 104° East  Level Estimated
Sat 03:45:00 PM 63.7688 99.5951 105° East  Level Estimated
Sat 03:46:00 PM 63.7371 99.8612 105° East  Level Estimated
Sat 03:47:00 PM 63.7049 100.1267 105° East  Level Estimated
Sat 03:48:00 PM 63.6722 100.3916 105° East  Level Estimated
Sat 03:49:00 PM 63.6390 100.6560 106° East  Level Estimated
Sat 03:50:00 PM 63.6054 100.9196 106° East  Level Estimated
Sat 03:51:00 PM 63.5713 101.1827 106° East  Level Estimated
Sat 03:52:00 PM 63.5366 101.4451 106° East  Level Estimated
Sat 03:53:00 PM 63.5016 101.7069 107° East  Level Estimated
Sat 03:54:00 PM 63.4660 101.9680 107° East  Level Estimated
Sat 03:55:00 PM 63.4300 102.2285 107° East  Level Estimated
Sat 03:56:00 PM 63.3934 102.4883 107° East  Level Estimated
Sat 03:57:00 PM 63.3565 102.7475 108° East  Level Estimated
Sat 03:58:00 PM 63.3190 103.0060 108° East  Level Estimated
Sat 03:59:00 PM 63.2811 103.2638 108° East  Level Estimated
Sat 04:00:00 PM 63.2427 103.5209 108° East  Level Estimated
Sat 04:01:00 PM 63.2039 103.7774 108° East  Level Estimated
Sat 04:02:00 PM 63.1646 104.0331 109° East  Level Estimated
Sat 04:03:00 PM 63.1248 104.2882 109° East  Level Estimated
Sat 04:04:00 PM 63.0846 104.5425 109° East  Level Estimated
Sat 04:05:00 PM 63.0439 104.7962 109° East  Level Estimated
Sat 04:06:00 PM 63.0028 105.0491 110° East  Level Estimated
Sat 04:07:00 PM 62.9612 105.3013 110° East  Level Estimated
Sat 04:08:00 PM 62.9192 105.5528 110° East  Level Estimated
Sat 04:09:00 PM 62.8767 105.8036 110° East  Level Estimated
Sat 04:10:00 PM 62.8338 106.0536 111° Southeast  Level Estimated
Sat 04:11:00 PM 62.7904 106.3030 111° Southeast  Level Estimated
Sat 04:12:00 PM 62.7466 106.5516 111° Southeast  Level Estimated
Sat 04:13:00 PM 62.7024 106.7994 111° Southeast  Level Estimated
Sat 04:14:00 PM 62.6577 107.0465 111° Southeast  Level Estimated
Sat 04:15:00 PM 62.6126 107.2928 112° Southeast  Level Estimated
Sat 04:16:00 PM 62.5671 107.5384 112° Southeast  Level Estimated
Sat 04:17:00 PM 62.5211 107.7833 112° Southeast  Level Estimated
Sat 04:18:00 PM 62.4747 108.0274 112° Southeast  Level Estimated
Sat 04:19:00 PM 62.4279 108.2707 112° Southeast  Level Estimated
Sat 04:20:00 PM 62.3807 108.5132 113° Southeast  Level Estimated
Sat 04:21:00 PM 62.3330 108.7550 113° Southeast  Level Estimated
Sat 04:22:00 PM 62.2849 108.9960 113° Southeast  Level Estimated
Sat 04:23:00 PM 62.2364 109.2363 113° Southeast  Level Estimated
Sat 04:24:00 PM 62.1875 109.4758 114° Southeast  Level Estimated
Sat 04:25:00 PM 62.1382 109.7145 114° Southeast  Level Estimated
Sat 04:26:00 PM 62.0885 109.9524 114° Southeast  Level Estimated
Sat 04:27:00 PM 62.0383 110.1895 114° Southeast  Level Estimated
Sat 04:28:00 PM 61.9878 110.4259 114° Southeast  Level Estimated
Sat 04:29:00 PM 61.9369 110.6615 115° Southeast  Level Estimated
Sat 04:30:00 PM 61.8855 110.8962 115° Southeast  Level Estimated
Sat 04:31:00 PM 61.8338 111.1302 115° Southeast  Level Estimated
Sat 04:32:00 PM 61.7816 111.3634 115° Southeast  Level Estimated
Sat 04:33:00 PM 61.7291 111.5958 115° Southeast  Level Estimated
Sat 04:34:00 PM 61.6762 111.8275 116° Southeast  Level Estimated
Sat 04:35:00 PM 61.6228 112.0583 116° Southeast  Level Estimated
Sat 04:36:00 PM 61.5691 112.2883 116° Southeast  Level Estimated
Sat 04:37:00 PM 61.5151 112.5175 116° Southeast  Level Estimated
Sat 04:38:00 PM 61.4606 112.7459 116° Southeast  Level Estimated
Sat 04:39:00 PM 61.4057 112.9736 117° Southeast  Level Estimated
Sat 04:40:00 PM 61.3505 113.2004 117° Southeast  Level Estimated
Sat 04:41:00 PM 61.2949 113.4264 117° Southeast  Level Estimated
Sat 04:42:00 PM 61.2389 113.6516 117° Southeast  Level Estimated
Sat 04:43:00 PM 61.1825 113.8761 117° Southeast  Level Estimated
Sat 04:44:00 PM 61.1258 114.0997 118° Southeast  Level Estimated
Sat 04:45:00 PM 61.0687 114.3225 118° Southeast  Level Estimated
Sat 04:46:00 PM 61.0113 114.5445 118° Southeast  Level Estimated
Sat 04:47:00 PM 60.9535 114.7657 118° Southeast  Level Estimated
Sat 04:48:00 PM 60.8953 114.9861 118° Southeast  Level Estimated
Sat 04:49:00 PM 60.8367 115.2057 119° Southeast  Level Estimated
Sat 04:50:00 PM 60.7778 115.4245 119° Southeast  Level Estimated
Sat 04:51:00 PM 60.7186 115.6424 119° Southeast  Level Estimated
Sat 04:52:00 PM 60.6590 115.8596 119° Southeast  Level Estimated
Sat 04:53:00 PM 60.5990 116.0760 119° Southeast  Level Estimated
Sat 04:54:00 PM 60.5387 116.2915 120° Southeast  Level Estimated
Sat 04:55:00 PM 60.4781 116.5063 120° Southeast  Level Estimated
Sat 04:56:00 PM 60.4171 116.7203 120° Southeast  Level Estimated
Sat 04:57:00 PM 60.3557 116.9334 120° Southeast  Level Estimated
Sat 04:58:00 PM 60.2941 117.1458 120° Southeast  Level Estimated
Sat 04:59:00 PM 60.2321 117.3573 120° Southeast  Level Estimated
Sat 05:00:00 PM 60.1697 117.5681 121° Southeast  Level Estimated
Sat 05:01:00 PM 60.1070 117.7780 121° Southeast  Level Estimated
Sat 05:02:00 PM 60.0440 117.9872 121° Southeast  Level Estimated
Sat 05:03:00 PM 59.9807 118.1955 121° Southeast  Level Estimated
Sat 05:04:00 PM 59.9170 118.4031 121° Southeast  Level Estimated
Sat 05:05:00 PM 59.8530 118.6098 122° Southeast  Level Estimated
Sat 05:06:00 PM 59.7887 118.8158 122° Southeast  Level Estimated
Sat 05:07:00 PM 59.7241 119.0210 122° Southeast  Level Estimated
Sat 05:08:00 PM 59.6591 119.2253 122° Southeast  Level Estimated
Sat 05:09:00 PM 59.5938 119.4289 122° Southeast  Level Estimated
Sat 05:10:00 PM 59.5283 119.6317 122° Southeast  Level Estimated
Sat 05:11:00 PM 59.4623 119.8337 123° Southeast  Level Estimated
Sat 05:12:00 PM 59.3961 120.0349 123° Southeast  Level Estimated
Sat 05:13:00 PM 59.3296 120.2354 123° Southeast  Level Estimated
Sat 05:14:00 PM 59.2628 120.4350 123° Southeast  Level Estimated
Sat 05:15:00 PM 59.1957 120.6338 123° Southeast  Level Estimated
Sat 05:16:00 PM 59.1282 120.8319 124° Southeast  Level Estimated
Sat 05:17:00 PM 59.0605 121.0292 124° Southeast  Level Estimated
Sat 05:18:00 PM 58.9925 121.2257 124° Southeast  Level Estimated
Sat 05:19:00 PM 58.9241 121.4215 124° Southeast  Level Estimated
Sat 05:20:00 PM 58.8555 121.6164 124° Southeast  Level Estimated
Sat 05:21:00 PM 58.7866 121.8106 124° Southeast  Level Estimated
Sat 05:22:00 PM 58.7174 122.0041 125° Southeast  Level Estimated
Sat 05:23:00 PM 58.6479 122.1967 125° Southeast  Level Estimated
Sat 05:24:00 PM 58.5782 122.3886 125° Southeast  Level Estimated
Sat 05:25:00 PM 58.5081 122.5797 125° Southeast  Level Estimated
Sat 05:26:00 PM 58.4377 122.7701 125° Southeast  Level Estimated
Sat 05:27:00 PM 58.3671 122.9597 125° Southeast  Level Estimated
Sat 05:28:00 PM 58.2962 123.1485 125° Southeast  Level Estimated
Sat 05:29:00 PM 58.2250 123.3366 126° Southeast  Level Estimated
Sat 05:30:00 PM 58.1536 123.5239 126° Southeast  Level Estimated
Sat 05:31:00 PM 58.0818 123.7105 126° Southeast  Level Estimated
Sat 05:32:00 PM 58.0098 123.8963 126° Southeast  Level Estimated
Sat 05:33:00 PM 57.9375 124.0814 126° Southeast  Level Estimated
Sat 05:34:00 PM 57.8650 124.2657 126° Southeast  Level Estimated
Sat 05:35:00 PM 57.7922 124.4493 127° Southeast  Level Estimated
Sat 05:36:00 PM 57.7191 124.6322 127° Southeast  Level Estimated
Sat 05:37:00 PM 57.6458 124.8143 127° Southeast  Level Estimated
Sat 05:38:00 PM 57.5722 124.9956 127° Southeast  Level Estimated
Sat 05:39:00 PM 57.4983 125.1763 127° Southeast  Level Estimated
Sat 05:40:00 PM 57.4242 125.3562 127° Southeast  Level Estimated
Sat 05:41:00 PM 57.3499 125.5354 128° Southeast  Level Estimated
Sat 05:42:00 PM 57.2752 125.7138 128° Southeast  Level Estimated
Sat 05:43:00 PM 57.2004 125.8916 128° Southeast  Level Estimated
Sat 05:44:00 PM 57.1253 126.0686 128° Southeast  Level Estimated
Sat 05:45:00 PM 57.0499 126.2449 128° Southeast  Level Estimated
Sat 05:46:00 PM 56.9743 126.4205 128° Southeast  Level Estimated
Sat 05:47:00 PM 56.8984 126.5953 128° Southeast  Level Estimated
Sat 05:48:00 PM 56.8223 126.7695 129° Southeast  Level Estimated
Sat 05:49:00 PM 56.7460 126.9429 129° Southeast  Level Estimated
Sat 05:50:00 PM 56.6694 127.1157 129° Southeast  Level Estimated
Sat 05:51:00 PM 56.5926 127.2877 129° Southeast  Level Estimated
Sat 05:52:00 PM 56.5155 127.4591 129° Southeast  Level Estimated
Sat 05:53:00 PM 56.4382 127.6297 129° Southeast  Level Estimated
Sat 05:54:00 PM 56.3607 127.7997 129° Southeast  Level Estimated
Sat 05:55:00 PM 56.2829 127.9689 130° Southeast  Level Estimated
Sat 05:56:00 PM 56.2049 128.1375 130° Southeast  Level Estimated
Sat 05:57:00 PM 56.1267 128.3054 130° Southeast  Level Estimated
Sat 05:58:00 PM 56.0483 128.4726 130° Southeast  Level Estimated
Sat 05:59:00 PM 55.9696 128.6391 130° Southeast  Level Estimated
Sat 06:00:00 PM 55.8907 128.8050 130° Southeast  Level Estimated
Sat 06:01:00 PM 55.8116 128.9702 130° Southeast  Level Estimated
Sat 06:02:00 PM 55.7323 129.1347 131° Southeast  Level Estimated
Sat 06:03:00 PM 55.6527 129.2985 131° Southeast  Level Estimated
Sat 06:04:00 PM 55.5729 129.4617 131° Southeast  Level Estimated
Sat 06:05:00 PM 55.4929 129.6242 131° Southeast  Level Estimated
Sat 06:06:00 PM 55.4127 129.7860 131° Southeast  Level Estimated
Sat 06:07:00 PM 55.3323 129.9472 131° Southeast  Level Estimated
Sat 06:08:00 PM 55.2517 130.1078 131° Southeast  Level Estimated
Sat 06:09:00 PM 55.1709 130.2677 131° Southeast  Level Estimated
Sat 06:10:00 PM 55.0898 130.4269 132° Southeast  Level Estimated
Sat 06:11:00 PM 55.0086 130.5855 132° Southeast  Level Estimated
Sat 06:12:00 PM 54.9271 130.7435 132° Southeast  Level Estimated
Sat 06:13:00 PM 54.8455 130.9008 132° Southeast  Level Estimated
Sat 06:14:00 PM 54.7636 131.0574 132° Southeast  Level Estimated
Sat 06:15:00 PM 54.6815 131.2135 132° Southeast  Level Estimated
Sat 06:16:00 PM 54.5993 131.3689 132° Southeast  Level Estimated
Sat 06:17:00 PM 54.5168 131.5237 133° Southeast  Level Estimated
Sat 06:18:00 PM 54.4341 131.6779 133° Southeast  Level Estimated
Sat 06:19:00 PM 54.3513 131.8314 133° Southeast  Level Estimated
Sat 06:20:00 PM 54.2682 131.9843 133° Southeast  Level Estimated
Sat 06:21:00 PM 54.1850 132.1366 133° Southeast  Level Estimated
Sat 06:22:00 PM 54.1016 132.2883 133° Southeast  Level Estimated
Sat 06:23:00 PM 54.0179 132.4394 133° Southeast  Level Estimated
Sat 06:24:00 PM 53.9341 132.5899 133° Southeast  Level Estimated
Sat 06:25:00 PM 53.8501 132.7398 134° Southeast  Level Estimated
Sat 06:26:00 PM 53.7659 132.8890 134° Southeast  Level Estimated
Sat 06:27:00 PM 53.6816 133.0377 134° Southeast  Level Estimated
Sat 06:28:00 PM 53.5970 133.1858 134° Southeast  Level Estimated
Sat 06:29:00 PM 53.5123 133.3333 134° Southeast  Level Estimated
Sat 06:30:00 PM 53.4274 133.4802 134° Southeast  Level Estimated
Sat 06:31:00 PM 53.3423 133.6265 134° Southeast  Level Estimated
Sat 06:32:00 PM 53.2570 133.7722 134° Southeast  Level Estimated
Sat 06:33:00 PM 53.1716 133.9174 134° Southeast  Level Estimated
Sat 06:34:00 PM 53.0859 134.0619 135° Southeast  Level Estimated
Sat 06:35:00 PM 53.0001 134.2059 135° Southeast  Level Estimated
Sat 06:36:00 PM 52.9142 134.3494 135° Southeast  Level Estimated
Sat 06:37:00 PM 52.8280 134.4922 135° Southeast  Level Estimated
Sat 06:38:00 PM 52.7417 134.6345 135° Southeast  Level Estimated
Sat 06:39:00 PM 52.6552 134.7762 135° Southeast  Level Estimated
Sat 06:40:00 PM 52.5686 134.9174 135° Southeast  Level Estimated
Sat 06:41:00 PM 52.4817 135.0580 135° Southeast  Level Estimated
Sat 06:42:00 PM 52.3947 135.1981 135° Southeast  Level Estimated
Sat 06:43:00 PM 52.3076 135.3376 136° Southeast  Level Estimated
Sat 06:44:00 PM 52.2203 135.4765 136° Southeast  Level Estimated
Sat 06:45:00 PM 52.1328 135.6149 136° Southeast  Level Estimated
Sat 06:46:00 PM 52.0452 135.7528 136° Southeast  Level Estimated
Sat 06:47:00 PM 51.9574 135.8901 136° Southeast  Level Estimated
Sat 06:48:00 PM 51.8694 136.0269 136° Southeast  Level Estimated
Sat 06:49:00 PM 51.7813 136.1632 136° Southeast  Level Estimated
Sat 06:50:00 PM 51.6930 136.2989 136° Southeast  Level Estimated
Sat 06:51:00 PM 51.6046 136.4341 136° Southeast  Level Estimated
Sat 06:52:00 PM 51.5160 136.5687 137° Southeast  Level Estimated
Sat 06:53:00 PM 51.4273 136.7029 137° Southeast  Level Estimated
Sat 06:54:00 PM 51.3384 136.8365 137° Southeast  Level Estimated
Sat 06:55:00 PM 51.2493 136.9696 137° Southeast  Level Estimated
Sat 06:56:00 PM 51.1601 137.1022 137° Southeast  Level Estimated
Sat 06:57:00 PM 51.0708 137.2343 137° Southeast  Level Estimated
Sat 06:58:00 PM 50.9813 137.3658 137° Southeast  Level Estimated
Sat 06:59:00 PM 50.8917 137.4969 137° Southeast  Level Estimated
Sat 07:00:00 PM 50.8019 137.6275 137° Southeast  Level Estimated
Sat 07:01:00 PM 50.7119 137.7575 137° Southeast  Level Estimated
Sat 07:02:00 PM 50.6219 137.8871 138° Southeast  Level Estimated
Sat 07:03:00 PM 50.5317 138.0161 138° Southeast  Level Estimated
Sat 07:04:00 PM 50.4413 138.1447 138° Southeast  Level Estimated
Sat 07:05:00 PM 50.3508 138.2728 138° Southeast  Level Estimated
Sat 07:06:00 PM 50.2602 138.4004 138° Southeast  Level Estimated
Sat 07:07:00 PM 50.1694 138.5275 138° Southeast  Level Estimated
Sat 07:08:00 PM 50.0785 138.6541 138° Southeast  Level Estimated
Sat 07:09:00 PM 49.9874 138.7803 138° Southeast  Level Estimated
Sat 07:10:00 PM 49.8962 138.9059 138° Southeast  Level Estimated
Sat 07:11:00 PM 49.8049 139.0311 138° Southeast  Level Estimated
Sat 07:12:00 PM 49.7134 139.1559 139° Southeast  Level Estimated
Sat 07:13:00 PM 49.6218 139.2801 139° Southeast  Level Estimated
Sat 07:14:00 PM 49.5301 139.4039 139° Southeast  Level Estimated
Sat 07:15:00 PM 49.4383 139.5272 139° Southeast  Level Estimated
Sat 07:16:00 PM 49.3463 139.6501 139° Southeast  Level Estimated
Sat 07:17:00 PM 49.2542 139.7725 139° Southeast  Level Estimated
Sat 07:18:00 PM 49.1619 139.8944 139° Southeast  Level Estimated
Sat 07:19:00 PM 49.0695 140.0159 139° Southeast  Level Estimated
Sat 07:20:00 PM 48.9770 140.1370 139° Southeast  Level Estimated
Sat 07:21:00 PM 48.8844 140.2576 139° Southeast  Level Estimated
Sat 07:22:00 PM 48.7917 140.3777 140° Southeast  Level Estimated
Sat 07:23:00 PM 48.6988 140.4974 140° Southeast  Level Estimated
Sat 07:24:00 PM 48.6058 140.6167 140° Southeast  Level Estimated
Sat 07:25:00 PM 48.5127 140.7355 140° Southeast  Level Estimated
Sat 07:26:00 PM 48.4194 140.8539 140° Southeast  Level Estimated
Sat 07:27:00 PM 48.3260 140.9718 140° Southeast  Level Estimated
Sat 07:28:00 PM 48.2326 141.0893 140° Southeast  Level Estimated
Sat 07:29:00 PM 48.1390 141.2064 140° Southeast  Level Estimated
Sat 07:30:00 PM 48.0452 141.3231 140° Southeast  Level Estimated
Sat 07:31:00 PM 47.9514 141.4393 140° Southeast  Level Estimated
Sat 07:32:00 PM 47.8574 141.5551 140° Southeast  Level Estimated
Sat 07:33:00 PM 47.7634 141.6705 140° Southeast  Level Estimated
Sat 07:34:00 PM 47.6692 141.7855 141° Southeast  Level Estimated
Sat 07:35:00 PM 47.5749 141.9001 141° Southeast  Level Estimated
Sat 07:36:00 PM 47.4804 142.0143 141° Southeast  Level Estimated
Sat 07:37:00 PM 47.3859 142.1280 141° Southeast  Level Estimated
Sat 07:38:00 PM 47.2913 142.2413 141° Southeast  Level Estimated
Sat 07:39:00 PM 47.1965 142.3543 141° Southeast  Level Estimated
Sat 07:40:00 PM 47.1017 142.4668 141° Southeast  Level Estimated

Login

Don't have an account? Register now (free) for customized features, flight alerts, and more!